sensor_id;sensor_type;location;lat;lon;timestamp;pressure;altitude;pressure_sealevel;temperature;humidity
25430;BME280;13360;48.152;-1.788;2023-10-09T00:02:02;102108.59;;;15.57;100.00
25430;BME280;13360;48.152;-1.788;2023-10-09T00:04:31;102118.44;;;15.49;100.00
25430;BME280;13360;48.152;-1.788;2023-10-09T00:06:56;102119.34;;;15.45;100.00
25430;BME280;13360;48.152;-1.788;2023-10-09T00:09:24;102121.81;;;15.46;100.00
25430;BME280;13360;48.152;-1.788;2023-10-09T00:11:50;102126.56;;;15.46;100.00
25430;BME280;13360;48.152;-1.788;2023-10-09T00:14:22;102113.75;;;15.45;100.00
25430;BME280;13360;48.152;-1.788;2023-10-09T00:16:47;102104.91;;;15.38;100.00
25430;BME280;13360;48.152;-1.788;2023-10-09T00:19:21;102098.28;;;15.34;100.00
25430;BME280;13360;48.152;-1.788;2023-10-09T00:21:51;102096.63;;;15.33;100.00
25430;BME280;13360;48.152;-1.788;2023-10-09T00:24:20;102096.47;;;15.24;100.00
25430;BME280;13360;48.152;-1.788;2023-10-09T00:26:48;102100.16;;;15.14;100.00
25430;BME280;13360;48.152;-1.788;2023-10-09T00:29:14;102094.13;;;15.07;100.00
25430;BME280;13360;48.152;-1.788;2023-10-09T00:31:52;102098.28;;;15.10;100.00
25430;BME280;13360;48.152;-1.788;2023-10-09T00:34:38;102088.56;;;15.07;100.00
25430;BME280;13360;48.152;-1.788;2023-10-09T00:37:07;102091.34;;;15.07;100.00
25430;BME280;13360;48.152;-1.788;2023-10-09T00:39:41;102088.03;;;15.05;100.00
25430;BME280;13360;48.152;-1.788;2023-10-09T00:42:08;102092.53;;;15.01;100.00
25430;BME280;13360;48.152;-1.788;2023-10-09T00:44:37;102085.03;;;14.97;100.00
25430;BME280;13360;48.152;-1.788;2023-10-09T00:47:11;102087.28;;;14.94;100.00
25430;BME280;13360;48.152;-1.788;2023-10-09T00:49:49;102086.47;;;14.94;100.00
25430;BME280;13360;48.152;-1.788;2023-10-09T00:52:15;102083.75;;;14.89;100.00
25430;BME280;13360;48.152;-1.788;2023-10-09T00:54:43;102082.31;;;14.91;100.00
25430;BME280;13360;48.152;-1.788;2023-10-09T00:57:15;102065.97;;;14.85;100.00
25430;BME280;13360;48.152;-1.788;2023-10-09T00:59:43;102068.75;;;14.85;100.00
25430;BME280;13360;48.152;-1.788;2023-10-09T01:02:09;102066.81;;;14.85;100.00
25430;BME280;13360;48.152;-1.788;2023-10-09T01:04:35;102071.03;;;14.78;100.00
25430;BME280;13360;48.152;-1.788;2023-10-09T01:07:06;102076.91;;;14.76;100.00
25430;BME280;13360;48.152;-1.788;2023-10-09T01:09:42;102065.25;;;14.74;100.00
25430;BME280;13360;48.152;-1.788;2023-10-09T01:12:10;102075.53;;;14.74;100.00
25430;BME280;13360;48.152;-1.788;2023-10-09T01:14:45;102078.91;;;14.71;100.00
25430;BME280;13360;48.152;-1.788;2023-10-09T01:17:17;102074.75;;;14.68;100.00
25430;BME280;13360;48.152;-1.788;2023-10-09T01:19:54;102077.31;;;14.64;100.00
25430;BME280;13360;48.152;-1.788;2023-10-09T01:22:21;102092.31;;;14.63;100.00
25430;BME280;13360;48.152;-1.788;2023-10-09T01:24:47;102084.03;;;14.58;100.00
25430;BME280;13360;48.152;-1.788;2023-10-09T01:27:15;102086.00;;;14.58;100.00
25430;BME280;13360;48.152;-1.788;2023-10-09T01:29:40;102071.81;;;14.54;100.00
25430;BME280;13360;48.152;-1.788;2023-10-09T01:32:06;102074.06;;;14.52;100.00
25430;BME280;13360;48.152;-1.788;2023-10-09T01:34:34;102069.09;;;14.49;100.00
25430;BME280;13360;48.152;-1.788;2023-10-09T01:37:13;102055.47;;;14.48;100.00
25430;BME280;13360;48.152;-1.788;2023-10-09T01:39:51;102059.38;;;14.47;100.00
25430;BME280;13360;48.152;-1.788;2023-10-09T01:42:17;102062.16;;;14.47;100.00
25430;BME280;13360;48.152;-1.788;2023-10-09T01:44:50;102059.13;;;14.43;100.00
25430;BME280;13360;48.152;-1.788;2023-10-09T01:47:15;102050.81;;;14.38;100.00
25430;BME280;13360;48.152;-1.788;2023-10-09T01:49:43;102056.41;;;14.33;100.00
25430;BME280;13360;48.152;-1.788;2023-10-09T01:52:09;102054.78;;;14.27;100.00
25430;BME280;13360;48.152;-1.788;2023-10-09T01:54:38;102050.38;;;14.21;100.00
25430;BME280;13360;48.152;-1.788;2023-10-09T01:57:07;102069.56;;;14.22;100.00
25430;BME280;13360;48.152;-1.788;2023-10-09T01:59:42;102070.91;;;14.25;100.00
25430;BME280;13360;48.152;-1.788;2023-10-09T02:02:14;102054.88;;;14.17;100.00
25430;BME280;13360;48.152;-1.788;2023-10-09T02:05:00;102047.97;;;14.09;100.00
25430;BME280;13360;48.152;-1.788;2023-10-09T02:07:38;102051.84;;;14.08;100.00
25430;BME280;13360;48.152;-1.788;2023-10-09T02:10:12;102062.16;;;14.08;100.00
25430;BME280;13360;48.152;-1.788;2023-10-09T02:12:49;102053.22;;;14.11;100.00
25430;BME280;13360;48.152;-1.788;2023-10-09T02:15:19;102045.47;;;14.08;100.00
25430;BME280;13360;48.152;-1.788;2023-10-09T02:18:04;102041.56;;;14.09;100.00
25430;BME280;13360;48.152;-1.788;2023-10-09T02:20:41;102044.66;;;14.07;100.00
25430;BME280;13360;48.152;-1.788;2023-10-09T02:23:07;102039.41;;;14.00;100.00
25430;BME280;13360;48.152;-1.788;2023-10-09T02:25:38;102045.03;;;13.95;100.00
25430;BME280;13360;48.152;-1.788;2023-10-09T02:28:08;102054.44;;;13.94;100.00
25430;BME280;13360;48.152;-1.788;2023-10-09T02:30:33;102050.28;;;13.92;100.00
25430;BME280;13360;48.152;-1.788;2023-10-09T02:32:59;102055.31;;;13.90;100.00
25430;BME280;13360;48.152;-1.788;2023-10-09T02:35:33;102063.34;;;13.91;100.00
25430;BME280;13360;48.152;-1.788;2023-10-09T02:38:02;102056.13;;;13.90;100.00
25430;BME280;13360;48.152;-1.788;2023-10-09T02:40:31;102053.97;;;13.82;100.00
25430;BME280;13360;48.152;-1.788;2023-10-09T02:43:04;102063.44;;;13.81;100.00
25430;BME280;13360;48.152;-1.788;2023-10-09T02:45:29;102066.75;;;13.83;100.00
25430;BME280;13360;48.152;-1.788;2023-10-09T02:48:00;102071.19;;;13.84;100.00
25430;BME280;13360;48.152;-1.788;2023-10-09T02:50:34;102064.28;;;13.77;100.00
25430;BME280;13360;48.152;-1.788;2023-10-09T02:52:59;102070.38;;;13.79;100.00
25430;BME280;13360;48.152;-1.788;2023-10-09T02:55:26;102070.38;;;13.79;100.00
25430;BME280;13360;48.152;-1.788;2023-10-09T02:57:53;102061.22;;;13.73;100.00
25430;BME280;13360;48.152;-1.788;2023-10-09T03:00:30;102057.09;;;13.70;100.00
25430;BME280;13360;48.152;-1.788;2023-10-09T03:02:56;102060.69;;;13.71;100.00
25430;BME280;13360;48.152;-1.788;2023-10-09T03:05:23;102050.44;;;13.66;100.00
25430;BME280;13360;48.152;-1.788;2023-10-09T03:07:49;102048.53;;;13.62;100.00
25430;BME280;13360;48.152;-1.788;2023-10-09T03:10:17;102048.53;;;13.62;100.00
25430;BME280;13360;48.152;-1.788;2023-10-09T03:12:42;102048.00;;;13.60;100.00
25430;BME280;13360;48.152;-1.788;2023-10-09T03:15:08;102039.13;;;13.58;100.00
25430;BME280;13360;48.152;-1.788;2023-10-09T03:17:34;102044.13;;;13.56;100.00
25430;BME280;13360;48.152;-1.788;2023-10-09T03:20:02;102039.69;;;13.55;100.00
25430;BME280;13360;48.152;-1.788;2023-10-09T03:22:27;102041.34;;;13.56;100.00
25430;BME280;13360;48.152;-1.788;2023-10-09T03:24:53;102045.25;;;13.55;100.00
25430;BME280;13360;48.152;-1.788;2023-10-09T03:27:18;102034.44;;;13.48;100.00
25430;BME280;13360;48.152;-1.788;2023-10-09T03:29:43;102020.06;;;13.41;100.00
25430;BME280;13360;48.152;-1.788;2023-10-09T03:32:14;102032.81;;;13.42;100.00
25430;BME280;13360;48.152;-1.788;2023-10-09T03:34:39;102041.13;;;13.42;100.00
25430;BME280;13360;48.152;-1.788;2023-10-09T03:37:05;102037.00;;;13.39;100.00
25430;BME280;13360;48.152;-1.788;2023-10-09T03:39:31;102045.06;;;13.36;100.00
25430;BME280;13360;48.152;-1.788;2023-10-09T03:42:06;102052.00;;;13.33;100.00
25430;BME280;13360;48.152;-1.788;2023-10-09T03:44:36;102051.44;;;13.31;100.00
25430;BME280;13360;48.152;-1.788;2023-10-09T03:47:06;102058.94;;;13.31;100.00
25430;BME280;13360;48.152;-1.788;2023-10-09T03:49:34;102059.50;;;13.28;100.00
25430;BME280;13360;48.152;-1.788;2023-10-09T03:52:00;102052.28;;;13.27;100.00
25430;BME280;13360;48.152;-1.788;2023-10-09T03:54:25;102055.91;;;13.27;100.00
25430;BME280;13360;48.152;-1.788;2023-10-09T03:56:50;102055.34;;;13.25;100.00
25430;BME280;13360;48.152;-1.788;2023-10-09T03:59:18;102047.88;;;13.21;100.00
25430;BME280;13360;48.152;-1.788;2023-10-09T04:01:47;102046.47;;;13.23;100.00
25430;BME280;13360;48.152;-1.788;2023-10-09T04:04:13;102044.25;;;13.25;100.00
25430;BME280;13360;48.152;-1.788;2023-10-09T04:06:39;102037.91;;;13.20;100.00
25430;BME280;13360;48.152;-1.788;2023-10-09T04:09:09;102030.13;;;13.17;100.00
25430;BME280;13360;48.152;-1.788;2023-10-09T04:11:43;102034.56;;;13.18;100.00
25430;BME280;13360;48.152;-1.788;2023-10-09T04:14:11;102027.06;;;13.13;100.00
25430;BME280;13360;48.152;-1.788;2023-10-09T04:16:44;102024.00;;;13.09;100.00
25430;BME280;13360;48.152;-1.788;2023-10-09T04:19:28;102024.59;;;13.06;100.00
25430;BME280;13360;48.152;-1.788;2023-10-09T04:21:54;102027.34;;;13.06;100.00
25430;BME280;13360;48.152;-1.788;2023-10-09T04:24:23;102026.53;;;13.06;100.00
25430;BME280;13360;48.152;-1.788;2023-10-09T04:26:48;102034.88;;;13.01;100.00
25430;BME280;13360;48.152;-1.788;2023-10-09T04:29:20;102033.22;;;13.00;100.00
25430;BME280;13360;48.152;-1.788;2023-10-09T04:31:52;102045.41;;;12.99;100.00
25430;BME280;13360;48.152;-1.788;2023-10-09T04:34:18;102046.81;;;12.96;100.00
25430;BME280;13360;48.152;-1.788;2023-10-09T04:36:47;102045.72;;;12.92;100.00
25430;BME280;13360;48.152;-1.788;2023-10-09T04:39:14;102051.25;;;12.92;100.00
25430;BME280;13360;48.152;-1.788;2023-10-09T04:42:00;102047.91;;;12.90;100.00
25430;BME280;13360;48.152;-1.788;2023-10-09T04:44:43;102055.41;;;12.90;100.00
25430;BME280;13360;48.152;-1.788;2023-10-09T04:47:30;102056.22;;;12.90;100.00
25430;BME280;13360;48.152;-1.788;2023-10-09T04:50:03;102063.19;;;12.88;100.00
25430;BME280;13360;48.152;-1.788;2023-10-09T04:52:31;102055.97;;;12.87;100.00
25430;BME280;13360;48.152;-1.788;2023-10-09T04:54:57;102065.41;;;12.80;100.00
25430;BME280;13360;48.152;-1.788;2023-10-09T04:57:31;102061.00;;;12.74;100.00
25430;BME280;13360;48.152;-1.788;2023-10-09T05:00:04;102057.13;;;12.70;100.00
25430;BME280;13360;48.152;-1.788;2023-10-09T05:02:32;102069.28;;;12.69;100.00
25430;BME280;13360;48.152;-1.788;2023-10-09T05:05:02;102072.09;;;12.74;100.00
25430;BME280;13360;48.152;-1.788;2023-10-09T05:07:47;102075.97;;;12.73;100.00
25430;BME280;13360;48.152;-1.788;2023-10-09T05:10:22;102075.41;;;12.66;100.00
25430;BME280;13360;48.152;-1.788;2023-10-09T05:12:50;102086.75;;;12.70;100.00
25430;BME280;13360;48.152;-1.788;2023-10-09T05:15:24;102087.63;;;12.70;100.00
25430;BME280;13360;48.152;-1.788;2023-10-09T05:17:55;102095.34;;;12.68;100.00
25430;BME280;13360;48.152;-1.788;2023-10-09T05:20:22;102085.38;;;12.62;100.00
25430;BME280;13360;48.152;-1.788;2023-10-09T05:22:53;102090.38;;;12.60;100.00
25430;BME280;13360;48.152;-1.788;2023-10-09T05:25:40;102082.06;;;12.60;100.00
25430;BME280;13360;48.152;-1.788;2023-10-09T05:28:23;102084.28;;;12.63;100.00
25430;BME280;13360;48.152;-1.788;2023-10-09T05:31:13;102086.50;;;12.61;100.00
25430;BME280;13360;48.152;-1.788;2023-10-09T05:33:58;102089.28;;;12.61;100.00
25430;BME280;13360;48.152;-1.788;2023-10-09T05:36:26;102088.72;;;12.54;100.00
25430;BME280;13360;48.152;-1.788;2023-10-09T05:38:51;102095.66;;;12.51;100.00
25430;BME280;13360;48.152;-1.788;2023-10-09T05:41:35;102105.63;;;12.47;100.00
25430;BME280;13360;48.152;-1.788;2023-10-09T05:44:17;102109.78;;;12.45;100.00
25430;BME280;13360;48.152;-1.788;2023-10-09T05:47:01;102103.16;;;12.51;100.00
25430;BME280;13360;48.152;-1.788;2023-10-09T05:49:49;102111.44;;;12.56;100.00
25430;BME280;13360;48.152;-1.788;2023-10-09T05:52:28;102118.66;;;12.62;100.00
25430;BME280;13360;48.152;-1.788;2023-10-09T05:55:03;102113.94;;;12.68;100.00
25430;BME280;13360;48.152;-1.788;2023-10-09T05:57:52;102110.31;;;12.67;100.00
25430;BME280;13360;48.152;-1.788;2023-10-09T06:00:23;102108.66;;;12.66;100.00
25430;BME280;13360;48.152;-1.788;2023-10-09T06:03:07;102105.91;;;12.66;100.00
25430;BME280;13360;48.152;-1.788;2023-10-09T06:05:55;102107.28;;;12.64;100.00
25430;BME280;13360;48.152;-1.788;2023-10-09T06:08:27;102113.94;;;12.63;100.00
25430;BME280;13360;48.152;-1.788;2023-10-09T06:11:13;102114.22;;;12.61;100.00
25430;BME280;13360;48.152;-1.788;2023-10-09T06:13:58;102113.13;;;12.57;100.00
25430;BME280;13360;48.152;-1.788;2023-10-09T06:16:37;102114.50;;;12.49;100.00
25430;BME280;13360;48.152;-1.788;2023-10-09T06:19:21;102115.88;;;12.42;100.00
25430;BME280;13360;48.152;-1.788;2023-10-09T06:21:57;102120.31;;;12.43;100.00
25430;BME280;13360;48.152;-1.788;2023-10-09T06:24:41;102133.31;;;12.42;100.00
25430;BME280;13360;48.152;-1.788;2023-10-09T06:27:11;102133.59;;;12.41;100.00
25430;BME280;13360;48.152;-1.788;2023-10-09T06:29:36;102128.91;;;12.36;100.00
25430;BME280;13360;48.152;-1.788;2023-10-09T06:32:02;102133.31;;;12.37;100.00
25430;BME280;13360;48.152;-1.788;2023-10-09T06:34:46;102134.16;;;12.38;100.00
25430;BME280;13360;48.152;-1.788;2023-10-09T06:37:16;102142.75;;;12.36;100.00
25430;BME280;13360;48.152;-1.788;2023-10-09T06:39:48;102149.41;;;12.35;100.00
25430;BME280;13360;48.152;-1.788;2023-10-09T06:42:26;102158.00;;;12.39;100.00
25430;BME280;13360;48.152;-1.788;2023-10-09T06:45:11;102153.84;;;12.36;100.00
25430;BME280;13360;48.152;-1.788;2023-10-09T06:47:46;102171.28;;;12.37;100.00
25430;BME280;13360;48.152;-1.788;2023-10-09T06:50:30;102168.53;;;12.37;100.00
25430;BME280;13360;48.152;-1.788;2023-10-09T06:53:14;102172.94;;;12.38;100.00
25430;BME280;13360;48.152;-1.788;2023-10-09T06:55:39;102182.94;;;12.39;100.00
25430;BME280;13360;48.152;-1.788;2023-10-09T06:58:19;102187.63;;;12.38;100.00
25430;BME280;13360;48.152;-1.788;2023-10-09T07:00:51;102198.16;;;12.41;100.00
25430;BME280;13360;48.152;-1.788;2023-10-09T07:03:37;102198.44;;;12.45;100.00
25430;BME280;13360;48.152;-1.788;2023-10-09T07:06:17;102206.78;;;12.50;100.00
25430;BME280;13360;48.152;-1.788;2023-10-09T07:09:00;102212.91;;;12.52;100.00
25430;BME280;13360;48.152;-1.788;2023-10-09T07:11:31;102216.78;;;12.56;100.00
25430;BME280;13360;48.152;-1.788;2023-10-09T07:14:06;102227.59;;;12.58;100.00
25430;BME280;13360;48.152;-1.788;2023-10-09T07:16:54;102236.19;;;12.61;100.00
25430;BME280;13360;48.152;-1.788;2023-10-09T07:19:25;102249.50;;;12.64;100.00
25430;BME280;13360;48.152;-1.788;2023-10-09T07:22:03;102265.06;;;12.70;100.00
25430;BME280;13360;48.152;-1.788;2023-10-09T07:24:29;102272.81;;;12.73;100.00
25430;BME280;13360;48.152;-1.788;2023-10-09T07:27:06;102288.63;;;12.78;100.00
25430;BME280;13360;48.152;-1.788;2023-10-09T07:29:35;102291.13;;;12.79;100.00
25430;BME280;13360;48.152;-1.788;2023-10-09T07:32:13;102296.66;;;12.85;100.00
25430;BME280;13360;48.152;-1.788;2023-10-09T07:34:44;102324.41;;;12.90;100.00
25430;BME280;13360;48.152;-1.788;2023-10-09T07:37:29;102348.56;;;12.94;100.00
25430;BME280;13360;48.152;-1.788;2023-10-09T07:39:58;102359.38;;;13.01;100.00
25430;BME280;13360;48.152;-1.788;2023-10-09T07:42:24;102378.81;;;13.06;100.00
25430;BME280;13360;48.152;-1.788;2023-10-09T07:45:09;102513.91;;;13.10;100.00
25430;BME280;13360;48.152;-1.788;2023-10-09T07:47:43;102573.91;;;13.17;100.00
25430;BME280;13360;48.152;-1.788;2023-10-09T07:50:28;102631.97;;;13.23;100.00
25430;BME280;13360;48.152;-1.788;2023-10-09T07:53:09;102667.78;;;13.30;100.00
25430;BME280;13360;48.152;-1.788;2023-10-09T07:55:40;102741.56;;;13.21;100.00
25430;BME280;13360;48.152;-1.788;2023-10-09T07:58:10;102794.06;;;13.32;100.00
25430;BME280;13360;48.152;-1.788;2023-10-09T08:00:36;102850.22;;;13.39;100.00
25430;BME280;13360;48.152;-1.788;2023-10-09T08:03:14;102899.75;;;13.53;100.00
25430;BME280;13360;48.152;-1.788;2023-10-09T08:05:49;102964.00;;;13.66;100.00
25430;BME280;13360;48.152;-1.788;2023-10-09T08:08:14;102997.72;;;13.75;100.00
25430;BME280;13360;48.152;-1.788;2023-10-09T08:10:54;103045.91;;;13.91;100.00
25430;BME280;13360;48.152;-1.788;2023-10-09T08:13:38;103049.69;;;14.12;100.00
25430;BME280;13360;48.152;-1.788;2023-10-09T08:16:22;103067.13;;;14.34;100.00
25430;BME280;13360;48.152;-1.788;2023-10-09T08:18:49;103096.22;;;14.53;100.00
25430;BME280;13360;48.152;-1.788;2023-10-09T08:21:19;103129.75;;;14.74;100.00
25430;BME280;13360;48.152;-1.788;2023-10-09T08:24:04;103137.69;;;14.97;100.00
25430;BME280;13360;48.152;-1.788;2023-10-09T08:26:29;103166.84;;;15.21;100.00
25430;BME280;13360;48.152;-1.788;2023-10-09T08:28:56;103176.97;;;15.43;100.00
25430;BME280;13360;48.152;-1.788;2023-10-09T08:31:41;103190.78;;;15.70;100.00
25430;BME280;13360;48.152;-1.788;2023-10-09T08:34:13;103207.84;;;15.94;100.00
25430;BME280;13360;48.152;-1.788;2023-10-09T08:36:51;103222.16;;;16.23;100.00
25430;BME280;13360;48.152;-1.788;2023-10-09T08:39:22;103215.25;;;16.45;100.00
25430;BME280;13360;48.152;-1.788;2023-10-09T08:41:54;103237.34;;;16.67;100.00
25430;BME280;13360;48.152;-1.788;2023-10-09T08:44:22;103249.34;;;16.93;100.00
25430;BME280;13360;48.152;-1.788;2023-10-09T08:46:50;103263.03;;;17.20;100.00
25430;BME280;13360;48.152;-1.788;2023-10-09T08:49:15;103238.41;;;17.37;100.00
25430;BME280;13360;48.152;-1.788;2023-10-09T08:51:41;103219.09;;;17.56;100.00
25430;BME280;13360;48.152;-1.788;2023-10-09T08:54:07;103197.78;;;17.81;100.00
25430;BME280;13360;48.152;-1.788;2023-10-09T08:56:36;103163.53;;;18.04;100.00
25430;BME280;13360;48.152;-1.788;2023-10-09T08:59:01;103119.47;;;18.25;100.00
25430;BME280;13360;48.152;-1.788;2023-10-09T09:01:27;103067.88;;;18.41;100.00
25430;BME280;13360;48.152;-1.788;2023-10-09T09:03:57;103042.50;;;18.62;100.00
25430;BME280;13360;48.152;-1.788;2023-10-09T09:06:22;102993.97;;;18.71;100.00
25430;BME280;13360;48.152;-1.788;2023-10-09T09:08:48;102968.00;;;18.89;100.00
25430;BME280;13360;48.152;-1.788;2023-10-09T09:11:17;102972.97;;;19.16;100.00
25430;BME280;13360;48.152;-1.788;2023-10-09T09:13:45;102949.72;;;19.35;100.00
25430;BME280;13360;48.152;-1.788;2023-10-09T09:16:14;102936.84;;;19.53;100.00
25430;BME280;13360;48.152;-1.788;2023-10-09T09:18:54;102919.38;;;19.61;100.00
25430;BME280;13360;48.152;-1.788;2023-10-09T09:21:35;102902.28;;;19.76;100.00
25430;BME280;13360;48.152;-1.788;2023-10-09T09:24:13;102881.75;;;19.94;100.00
25430;BME280;13360;48.152;-1.788;2023-10-09T09:26:48;102855.91;;;20.11;100.00
25430;BME280;13360;48.152;-1.788;2023-10-09T09:29:24;102799.28;;;20.23;100.00
25430;BME280;13360;48.152;-1.788;2023-10-09T09:31:53;102745.88;;;20.28;100.00
25430;BME280;13360;48.152;-1.788;2023-10-09T09:34:19;102710.84;;;20.25;100.00
25430;BME280;13360;48.152;-1.788;2023-10-09T09:36:51;102678.50;;;20.28;100.00
25430;BME280;13360;48.152;-1.788;2023-10-09T09:39:18;102672.59;;;20.43;100.00
25430;BME280;13360;48.152;-1.788;2023-10-09T09:41:44;102629.34;;;20.44;100.00
25430;BME280;13360;48.152;-1.788;2023-10-09T09:44:10;102591.75;;;20.54;100.00
25430;BME280;13360;48.152;-1.788;2023-10-09T09:46:39;102535.09;;;20.52;100.00
25430;BME280;13360;48.152;-1.788;2023-10-09T09:49:07;102493.97;;;20.47;100.00
25430;BME280;13360;48.152;-1.788;2023-10-09T09:51:41;102479.00;;;20.60;100.00
25430;BME280;13360;48.152;-1.788;2023-10-09T09:54:07;102452.72;;;20.56;100.00
25430;BME280;13360;48.152;-1.788;2023-10-09T09:56:34;102478.91;;;20.74;100.00
25430;BME280;13360;48.152;-1.788;2023-10-09T09:59:02;102466.56;;;20.84;100.00
25430;BME280;13360;48.152;-1.788;2023-10-09T10:01:30;102449.72;;;20.84;100.00
25430;BME280;13360;48.152;-1.788;2023-10-09T10:04:01;102431.50;;;20.73;100.00
25430;BME280;13360;48.152;-1.788;2023-10-09T10:06:29;102411.13;;;20.58;100.00
25430;BME280;13360;48.152;-1.788;2023-10-09T10:08:57;102417.72;;;20.54;100.00
25430;BME280;13360;48.152;-1.788;2023-10-09T10:14:07;102405.97;;;20.43;100.00
25430;BME280;13360;48.152;-1.788;2023-10-09T10:19:20;102362.59;;;20.27;100.00
25430;BME280;13360;48.152;-1.788;2023-10-09T10:21:46;102368.38;;;20.22;100.00
25430;BME280;13360;48.152;-1.788;2023-10-09T10:27:16;102369.13;;;20.14;100.00
25430;BME280;13360;48.152;-1.788;2023-10-09T10:35:16;102318.47;;;20.19;100.00
25430;BME280;13360;48.152;-1.788;2023-10-09T10:37:41;102351.19;;;20.23;100.00
25430;BME280;13360;48.152;-1.788;2023-10-09T10:40:25;102311.94;;;20.23;100.00
25430;BME280;13360;48.152;-1.788;2023-10-09T10:43:17;102248.06;;;20.20;100.00
25430;BME280;13360;48.152;-1.788;2023-10-09T10:46:11;102226.94;;;20.23;100.00
25430;BME280;13360;48.152;-1.788;2023-10-09T10:48:55;102273.66;;;20.27;100.00
25430;BME280;13360;48.152;-1.788;2023-10-09T10:51:39;102294.75;;;20.25;100.00
25430;BME280;13360;48.152;-1.788;2023-10-09T10:54:05;102346.41;;;20.24;100.00
25430;BME280;13360;48.152;-1.788;2023-10-09T10:57:02;102371.53;;;20.29;100.00
25430;BME280;13360;48.152;-1.788;2023-10-09T10:59:38;102364.25;;;20.28;100.00
25430;BME280;13360;48.152;-1.788;2023-10-09T11:02:10;102376.63;;;20.27;100.00
25430;BME280;13360;48.152;-1.788;2023-10-09T11:04:36;102404.53;;;20.32;100.00
25430;BME280;13360;48.152;-1.788;2023-10-09T11:07:01;102342.66;;;20.37;100.00
25430;BME280;13360;48.152;-1.788;2023-10-09T11:09:46;102326.28;;;20.30;100.00
25430;BME280;13360;48.152;-1.788;2023-10-09T11:12:25;102317.06;;;20.30;100.00
25430;BME280;13360;48.152;-1.788;2023-10-09T11:15:03;102318.72;;;20.31;100.00
25430;BME280;13360;48.152;-1.788;2023-10-09T11:17:33;102346.28;;;20.37;100.00
25430;BME280;13360;48.152;-1.788;2023-10-09T11:20:00;102238.91;;;20.46;100.00
25430;BME280;13360;48.152;-1.788;2023-10-09T11:22:45;102261.69;;;20.44;100.00
25430;BME280;13360;48.152;-1.788;2023-10-09T11:25:29;102294.19;;;20.45;100.00
25430;BME280;13360;48.152;-1.788;2023-10-09T11:27:55;102293.03;;;20.46;100.00
25430;BME280;13360;48.152;-1.788;2023-10-09T11:30:20;102285.78;;;20.45;100.00
25430;BME280;13360;48.152;-1.788;2023-10-09T11:33:06;102304.28;;;20.46;100.00
25430;BME280;13360;48.152;-1.788;2023-10-09T11:35:39;102304.44;;;20.41;100.00
25430;BME280;13360;48.152;-1.788;2023-10-09T11:38:06;102290.66;;;20.39;100.00
25430;BME280;13360;48.152;-1.788;2023-10-09T11:40:46;102282.91;;;20.36;100.00
25430;BME280;13360;48.152;-1.788;2023-10-09T11:43:44;102303.88;;;20.39;100.00
25430;BME280;13360;48.152;-1.788;2023-10-09T11:46:22;102266.78;;;20.42;100.00
25430;BME280;13360;48.152;-1.788;2023-10-09T11:49:13;102201.59;;;20.45;100.00
25430;BME280;13360;48.152;-1.788;2023-10-09T11:51:44;102193.81;;;20.42;100.00
25430;BME280;13360;48.152;-1.788;2023-10-09T11:54:30;102182.72;;;20.37;100.00
25430;BME280;13360;48.152;-1.788;2023-10-09T11:56:56;102172.16;;;20.34;100.00
25430;BME280;13360;48.152;-1.788;2023-10-09T11:59:21;102175.13;;;20.37;100.00
25430;BME280;13360;48.152;-1.788;2023-10-09T12:01:48;102140.13;;;20.35;100.00
25430;BME280;13360;48.152;-1.788;2023-10-09T12:04:18;102131.72;;;20.35;100.00
25430;BME280;13360;48.152;-1.788;2023-10-09T12:06:44;102121.47;;;20.30;100.00
25430;BME280;13360;48.152;-1.788;2023-10-09T12:09:09;102104.47;;;20.27;100.00
25430;BME280;13360;48.152;-1.788;2023-10-09T12:11:41;102096.22;;;20.30;100.00
25430;BME280;13360;48.152;-1.788;2023-10-09T12:14:06;102080.72;;;20.33;100.00
25430;BME280;13360;48.152;-1.788;2023-10-09T12:16:32;102073.94;;;20.34;100.00
25430;BME280;13360;48.152;-1.788;2023-10-09T12:18:58;102070.97;;;20.30;100.00
25430;BME280;13360;48.152;-1.788;2023-10-09T12:21:24;102066.69;;;20.33;100.00
25430;BME280;13360;48.152;-1.788;2023-10-09T12:23:49;102064.22;;;20.31;100.00
25430;BME280;13360;48.152;-1.788;2023-10-09T12:26:14;102069.47;;;20.33;100.00
25430;BME280;13360;48.152;-1.788;2023-10-09T12:28:43;102051.00;;;20.32;100.00
25430;BME280;13360;48.152;-1.788;2023-10-09T12:31:12;102035.66;;;20.29;100.00
25430;BME280;13360;48.152;-1.788;2023-10-09T12:33:40;102035.81;;;20.33;100.00
25430;BME280;13360;48.152;-1.788;2023-10-09T12:36:05;102034.00;;;20.37;100.00
25430;BME280;13360;48.152;-1.788;2023-10-09T12:38:30;102027.22;;;20.38;100.00
25430;BME280;13360;48.152;-1.788;2023-10-09T12:41:05;102017.16;;;20.37;100.00
25430;BME280;13360;48.152;-1.788;2023-10-09T12:43:40;102016.47;;;20.40;100.00
25430;BME280;13360;48.152;-1.788;2023-10-09T12:46:07;102009.25;;;20.48;100.00
25430;BME280;13360;48.152;-1.788;2023-10-09T12:48:33;101984.50;;;20.50;100.00
25430;BME280;13360;48.152;-1.788;2023-10-09T12:50:58;101981.69;;;20.50;100.00
25430;BME280;13360;48.152;-1.788;2023-10-09T12:53:31;101979.03;;;20.53;100.00
25430;BME280;13360;48.152;-1.788;2023-10-09T12:55:56;101970.59;;;20.53;100.00
25430;BME280;13360;48.152;-1.788;2023-10-09T12:58:21;101975.06;;;20.54;100.00
25430;BME280;13360;48.152;-1.788;2023-10-09T13:00:51;101967.13;;;20.56;100.00
25430;BME280;13360;48.152;-1.788;2023-10-09T13:03:17;101964.13;;;20.61;100.00
25430;BME280;13360;48.152;-1.788;2023-10-09T13:05:48;101963.00;;;20.62;100.00
25430;BME280;13360;48.152;-1.788;2023-10-09T13:08:20;101946.66;;;20.64;100.00
25430;BME280;13360;48.152;-1.788;2023-10-09T13:10:47;101957.19;;;20.67;100.00